Tuesday, January 16, 2018, 6:53 AM EST
Back to Local

KBLM, Belmar-farmingdale

Location: Farmingdale, NJ, United States Lat: 40.183
Local Time: 6:53 AM EST (11:53 GMT) Lon: -74.133
Time Zone: US/Eastern Elev: 157 ft

Show me the last for .
Show Decoded

2018-01-16 05:56 METAR KBLM 161056Z AUTO 03006KT 10SM OVC019 M03/M04 A3050 RMK AO2 SNB08E35
                 SLP334 P0000 T10281044 FZRANO =
2018-01-16 04:56 METAR KBLM 160956Z AUTO 31005KT 10SM OVC015 M03/M05 A3050 RMK AO2 SLP334
                 T10281050 FZRANO =
2018-01-16 03:56 METAR KBLM 160856Z AUTO 33006KT 9SM OVC015 M03/M05 A3049 RMK AO2 SNB31E51 SLP332
                 P0000 6//// T10331050 53005 FZRANO =
2018-01-16 02:56 METAR KBLM 160756Z AUTO 34006KT 10SM OVC015 M02/M04 A3048 RMK AO2 SLP326
                 T10221044 FZRANO =
2018-01-16 01:56 METAR KBLM 160656Z AUTO 00000KT 10SM OVC017 M02/M04 A3047 RMK AO2 SLP323
                 T10221039 FZRANO =
2018-01-16 00:56 METAR KBLM 160556Z AUTO 01003KT 10SM OVC015 M02/M04 A3048 RMK AO2 SLP327 6////
                 T10171039 11017 21022 55011 FZRANO =
2018-01-15 23:56 METAR KBLM 160456Z AUTO 03004KT 10SM OVC015 M02/M04 A3047 RMK AO2 SLP325
                 T10171039 410171083 FZRANO =
2018-01-15 22:56 METAR KBLM 160356Z AUTO 04004KT 10SM OVC015 M02/M04 A3050 RMK AO2 SLP334
                 T10171044 FZRANO =
2018-01-15 22:31 METAR KBLM 160331Z AUTO 04007KT 10SM OVC015 M02/M04 A3050 RMK AO2 FZRANO =
2018-01-15 21:56 METAR KBLM 160256Z AUTO 07007KT 10SM OVC013 M02/M04 A3051 RMK AO2 SLP338
                 T10171044 55005 FZRANO =
2018-01-15 21:11 METAR KBLM 160211Z AUTO 06009KT 10SM OVC013 M02/M04 A3050 RMK AO2 FZRANO =
2018-01-15 20:56 METAR KBLM 160156Z AUTO 07010KT 10SM OVC015 M02/M04 A3050 RMK AO2 SLP334
                 T10221044 FZRANO =
2018-01-15 20:04 METAR KBLM 160104Z AUTO 05007KT 10SM OVC015 M02/M04 A3053 RMK AO2 FZRANO TSNO =
2018-01-15 19:56 METAR KBLM 160056Z AUTO 05006KT 10SM OVC013 M02/M04 A3053 RMK AO2 SLP346
                 T10221044 FZRANO =
2018-01-15 19:04 METAR KBLM 160004Z AUTO 06007KT 10SM OVC013 M02/M04 A3053 RMK AO2 FZRANO =
2018-01-15 18:56 METAR KBLM 152356Z AUTO 07010KT 10SM OVC015 M02/M04 A3053 RMK AO2 SLP343 6////
                 T10221044 11017 21022 50004 FZRANO =
2018-01-15 17:56 METAR KBLM 152256Z AUTO 07008KT 10SM OVC017 M02/M04 A3053 RMK AO2 SLP344
                 T10171044 FZRANO =
2018-01-15 16:56 METAR KBLM 152156Z AUTO 04007KT 10SM OVC019 M02/M05 A3053 RMK AO2 SLP344
                 T10171050 FZRANO =
2018-01-15 15:56 METAR KBLM 152056Z AUTO 06009KT 10SM OVC017 M02/M06 A3052 RMK AO2 SLP339 6////
                 T10171056 56011 FZRANO =
2018-01-15 14:56 METAR KBLM 151956Z AUTO 04008KT 10SM OVC017 M02/M06 A3052 RMK AO2 SLP340
                 T10171056 FZRANO =
2018-01-15 13:56 METAR KBLM 151856Z AUTO 03009KT 10SM OVC017 M02/M06 A3052 RMK AO2 SLP342
                 T10171056 FZRANO =
2018-01-15 12:56 METAR KBLM 151756Z AUTO 05010KT 10SM OVC017 M02/M06 A3055 RMK AO2 SLP351 6////
                 T10221056 11017 21061 58025 FZRANO =
2018-01-15 11:56 METAR KBLM 151656Z AUTO 05010KT 10SM OVC015 M02/M05 A3058 RMK AO2 SLP360
                 T10171050 FZRANO =
2018-01-15 11:14 METAR KBLM 151614Z AUTO 03011KT 10SM BKN015 M02/M05 A3059 RMK AO2 FZRANO =
2018-01-15 11:04 METAR KBLM 151604Z AUTO 04017G21KT 10SM SCT017 M02/M05 A3059 RMK AO2 FZRANO =
2018-01-15 10:56 METAR KBLM 151556Z AUTO 04012KT 10SM BKN017 M02/M06 A3060 RMK AO2 SLP368
                 T10171056 FZRANO TSNO =
2018-01-15 09:56 METAR KBLM 151456Z AUTO 06013G20KT 10SM FEW017 M02/M06 A3062 RMK AO2 SLP376
                 T10171061 55001 FZRANO TSNO =
2018-01-15 08:56 METAR KBLM 151356Z AUTO 06011G17KT 10SM OVC017 M03/M06 A3062 RMK AO2 SLP374
                 T10281061 FZRANO =
2018-01-15 07:56 METAR KBLM 151256Z AUTO 05011KT 10SM OVC015 M04/M07 A3061 RMK AO2 SLP373
                 T10391067 FZRANO =
2018-01-15 06:56 METAR KBLM 151156Z AUTO 02009KT 10SM OVC017 M06/M09 A3063 RMK AO2 SLP376 7////
                 T10611094 11061 21083 58002 FZRANO =

Support USWX by starting your Amazon purchase here.